createdAt,value
2017-12-15T00:00:00.203Z,990.45
2017-12-15T00:01:00.187Z,990.44
2017-12-15T00:02:00.171Z,990.42
2017-12-15T00:03:00.155Z,990.42
2017-12-15T00:04:00.140Z,990.41
2017-12-15T00:05:00.124Z,990.44
2017-12-15T00:06:00.110Z,990.43
2017-12-15T00:07:00.096Z,990.45
2017-12-15T00:08:00.080Z,990.44
2017-12-15T00:09:00.063Z,990.43
2017-12-15T00:10:00.050Z,990.47
2017-12-15T00:11:00.035Z,990.43
2017-12-15T00:12:00.018Z,990.45
2017-12-15T00:13:00.003Z,990.46
2017-12-15T00:13:59.988Z,990.48
2017-12-15T00:14:59.973Z,990.51
2017-12-15T00:15:59.957Z,990.53
2017-12-15T00:16:59.941Z,990.53
2017-12-15T00:17:59.926Z,990.54
2017-12-15T00:18:59.911Z,990.60
2017-12-15T00:19:59.896Z,990.59
2017-12-15T00:20:59.882Z,990.58
2017-12-15T00:21:59.865Z,990.59
2017-12-15T00:22:59.850Z,990.65
2017-12-15T00:23:59.834Z,990.62
2017-12-15T00:24:59.819Z,990.60
2017-12-15T00:25:59.803Z,990.57
2017-12-15T00:26:59.788Z,990.61
2017-12-15T00:27:59.774Z,990.55
2017-12-15T00:28:59.757Z,990.57
2017-12-15T00:29:59.742Z,990.59
2017-12-15T00:30:59.727Z,990.56
2017-12-15T00:31:59.713Z,990.57
2017-12-15T00:32:59.696Z,990.56
2017-12-15T00:33:59.680Z,990.60
2017-12-15T00:34:59.665Z,990.64
2017-12-15T00:35:59.652Z,990.66
2017-12-15T00:36:59.634Z,990.70
2017-12-15T00:37:59.620Z,990.71
2017-12-15T00:38:59.604Z,990.72
2017-12-15T00:39:59.589Z,990.77
2017-12-15T00:40:59.574Z,990.75
2017-12-15T00:41:59.557Z,990.71
2017-12-15T00:42:59.543Z,990.72
2017-12-15T00:43:59.528Z,990.75
2017-12-15T00:44:59.511Z,990.76
2017-12-15T00:45:59.495Z,990.74
2017-12-15T00:46:59.481Z,990.76
2017-12-15T00:47:59.465Z,990.79
2017-12-15T00:48:59.449Z,990.74
2017-12-15T00:49:59.434Z,990.74
2017-12-15T00:50:59.419Z,990.69
2017-12-15T00:51:59.403Z,990.68
2017-12-15T00:52:59.388Z,990.72
2017-12-15T00:53:59.372Z,990.69
2017-12-15T00:54:59.358Z,990.71
2017-12-15T00:55:59.348Z,990.71
2017-12-15T00:56:59.327Z,990.74
2017-12-15T00:57:59.317Z,990.70
2017-12-15T00:58:59.297Z,990.72
2017-12-15T00:59:59.280Z,990.72
2017-12-15T01:00:59.263Z,990.76
2017-12-15T01:01:59.248Z,990.77
2017-12-15T01:02:59.233Z,990.77
2017-12-15T01:03:59.217Z,990.73
2017-12-15T01:04:59.202Z,990.71
2017-12-15T01:05:59.188Z,990.73
2017-12-15T01:06:59.172Z,990.74
2017-12-15T01:07:59.157Z,990.74
2017-12-15T01:08:59.141Z,990.69
2017-12-15T01:09:59.126Z,990.72
2017-12-15T01:10:59.110Z,990.75
2017-12-15T01:11:59.096Z,990.74
2017-12-15T01:12:59.078Z,990.75
2017-12-15T01:13:59.063Z,990.74
2017-12-15T01:14:59.049Z,990.78
2017-12-15T01:15:59.034Z,990.81
2017-12-15T01:16:59.018Z,990.81
2017-12-15T01:17:59.002Z,990.82
2017-12-15T01:18:58.986Z,990.80
2017-12-15T01:19:58.971Z,990.81
2017-12-15T01:20:58.956Z,990.78
2017-12-15T01:21:58.940Z,990.80
2017-12-15T01:22:58.924Z,990.79
2017-12-15T01:23:58.909Z,990.76
2017-12-15T01:24:58.894Z,990.78
2017-12-15T01:25:58.879Z,990.84
2017-12-15T01:26:58.863Z,990.79
2017-12-15T01:27:58.849Z,990.79
2017-12-15T01:28:58.832Z,990.82
2017-12-15T01:29:58.817Z,990.87
2017-12-15T01:30:58.800Z,990.85
2017-12-15T01:31:58.786Z,990.89
2017-12-15T01:32:58.769Z,990.87
2017-12-15T01:33:58.754Z,990.89
2017-12-15T01:34:58.738Z,990.92
2017-12-15T01:35:58.743Z,990.93
2017-12-15T01:36:58.708Z,990.94
2017-12-15T01:37:58.692Z,990.97
2017-12-15T01:38:58.677Z,991.02
2017-12-15T01:39:58.662Z,991.06
2017-12-15T01:40:58.646Z,991.03
2017-12-15T01:41:58.630Z,991.10
2017-12-15T01:42:58.616Z,991.16
2017-12-15T01:43:58.600Z,991.15
2017-12-15T01:44:58.586Z,991.18
2017-12-15T01:45:58.568Z,991.20
2017-12-15T01:46:58.554Z,991.23
2017-12-15T01:47:58.538Z,991.24
2017-12-15T01:48:58.523Z,991.25
2017-12-15T01:49:58.511Z,991.29
2017-12-15T01:50:58.496Z,991.25
2017-12-15T01:51:58.476Z,991.28
2017-12-15T01:52:58.460Z,991.32
2017-12-15T01:53:58.445Z,991.33
2017-12-15T01:54:58.429Z,991.35
2017-12-15T01:55:58.415Z,991.37
2017-12-15T01:56:58.399Z,991.37
2017-12-15T01:57:58.385Z,991.40
2017-12-15T01:58:58.373Z,991.38
2017-12-15T01:59:58.353Z,991.43
2017-12-15T02:00:58.336Z,991.44
2017-12-15T02:01:58.330Z,991.43
2017-12-15T02:02:58.307Z,991.46
2017-12-15T02:03:58.291Z,991.47
2017-12-15T02:04:58.275Z,991.46
2017-12-15T02:05:58.260Z,991.47
2017-12-15T02:06:58.244Z,991.50
2017-12-15T02:07:58.228Z,991.51
2017-12-15T02:08:58.212Z,991.50
2017-12-15T02:09:58.197Z,991.50
2017-12-15T02:10:58.182Z,991.51
2017-12-15T02:11:58.167Z,991.53
2017-12-15T02:12:58.151Z,991.58
2017-12-15T02:13:58.138Z,991.58
2017-12-15T02:14:58.123Z,991.56
2017-12-15T02:15:58.105Z,991.56
2017-12-15T02:16:58.088Z,991.54
2017-12-15T02:17:58.072Z,991.53
2017-12-15T02:18:58.058Z,991.53
2017-12-15T02:19:58.042Z,991.55
2017-12-15T02:20:58.025Z,991.55
2017-12-15T02:21:58.010Z,991.57
2017-12-15T02:22:57.996Z,991.60
2017-12-15T02:23:57.980Z,991.60
2017-12-15T02:24:57.963Z,991.59
2017-12-15T02:25:57.948Z,991.61
2017-12-15T02:26:57.933Z,991.64
2017-12-15T02:27:57.918Z,991.68
2017-12-15T02:28:57.903Z,991.69
2017-12-15T02:29:57.885Z,991.69
2017-12-15T02:30:57.870Z,991.72
2017-12-15T02:31:57.856Z,991.73
2017-12-15T02:32:57.839Z,991.74
2017-12-15T02:33:57.824Z,991.74
2017-12-15T02:34:57.808Z,991.79
2017-12-15T02:35:57.793Z,991.78
2017-12-15T02:36:57.777Z,991.75
2017-12-15T02:37:57.762Z,991.75
2017-12-15T02:38:57.748Z,991.75
2017-12-15T02:39:57.734Z,991.79
2017-12-15T02:40:57.722Z,991.80
2017-12-15T02:41:57.700Z,991.82
2017-12-15T02:42:57.682Z,991.83
2017-12-15T02:43:57.668Z,991.83
2017-12-15T02:44:57.651Z,991.89
2017-12-15T02:45:57.638Z,991.88
2017-12-15T02:46:57.622Z,991.86
2017-12-15T02:47:57.605Z,991.92
2017-12-15T02:48:57.590Z,991.90
2017-12-15T02:49:57.574Z,991.95
2017-12-15T02:50:57.562Z,991.98
2017-12-15T02:51:57.544Z,992.02
2017-12-15T02:52:57.526Z,992.00
2017-12-15T02:53:57.511Z,992.05
2017-12-15T02:54:57.497Z,992.02
2017-12-15T02:55:57.481Z,992.02
2017-12-15T02:56:57.464Z,992.02
2017-12-15T02:57:57.448Z,991.96
2017-12-15T02:58:57.434Z,991.97
2017-12-15T02:59:57.418Z,992.03
2017-12-15T03:00:57.402Z,992.02
2017-12-15T03:01:57.387Z,991.99
2017-12-15T03:02:57.371Z,992.02
2017-12-15T03:03:57.355Z,991.96
2017-12-15T03:04:57.339Z,991.99
2017-12-15T03:05:57.324Z,991.98
2017-12-15T03:06:57.308Z,991.96
2017-12-15T03:07:57.294Z,991.97
2017-12-15T03:08:57.286Z,991.97
2017-12-15T03:09:57.261Z,991.99
2017-12-15T03:10:57.253Z,992.00
2017-12-15T03:11:57.231Z,991.99
2017-12-15T03:12:57.214Z,991.98
2017-12-15T03:13:57.199Z,991.96
2017-12-15T03:14:57.183Z,991.93
2017-12-15T03:15:57.168Z,991.97
2017-12-15T03:16:57.151Z,992.02
2017-12-15T03:17:57.136Z,992.07
2017-12-15T03:18:57.121Z,992.08
2017-12-15T03:19:57.103Z,992.10
2017-12-15T03:20:57.087Z,992.09
2017-12-15T03:21:57.076Z,992.06
2017-12-15T03:22:57.056Z,992.09
2017-12-15T03:23:57.042Z,992.04
2017-12-15T03:24:57.025Z,992.06
2017-12-15T03:25:57.008Z,992.06
2017-12-15T03:26:56.995Z,992.03
2017-12-15T03:27:56.978Z,992.07
2017-12-15T03:28:56.968Z,992.05
2017-12-15T03:29:56.946Z,992.06
2017-12-15T03:30:56.933Z,992.10
2017-12-15T03:31:56.915Z,992.08
2017-12-15T03:32:56.902Z,992.07
2017-12-15T03:33:56.883Z,992.08
2017-12-15T03:34:56.869Z,992.07
2017-12-15T03:35:56.851Z,992.08
2017-12-15T03:36:56.892Z,992.05
2017-12-15T03:37:56.819Z,992.02
2017-12-15T03:38:56.804Z,991.99
2017-12-15T03:39:56.788Z,992.05
2017-12-15T03:40:56.773Z,992.06
2017-12-15T03:41:56.756Z,992.09
2017-12-15T03:42:56.742Z,992.12
2017-12-15T03:43:56.725Z,992.11
2017-12-15T03:44:56.708Z,992.12
2017-12-15T03:45:56.693Z,992.12
2017-12-15T03:46:56.679Z,992.08
2017-12-15T03:47:56.662Z,992.08
2017-12-15T03:48:56.645Z,992.14
2017-12-15T03:49:56.629Z,992.10
2017-12-15T03:50:56.614Z,992.10
2017-12-15T03:51:56.599Z,992.10
2017-12-15T03:52:56.582Z,992.11
2017-12-15T03:53:56.567Z,992.14
2017-12-15T03:54:56.557Z,992.15
2017-12-15T03:55:56.536Z,992.15
2017-12-15T03:56:56.520Z,992.14
2017-12-15T03:57:56.503Z,992.12
2017-12-15T03:58:56.488Z,992.14
2017-12-15T03:59:56.472Z,992.11
2017-12-15T04:00:56.457Z,992.08
2017-12-15T04:01:56.441Z,992.08
2017-12-15T04:02:56.425Z,992.13
2017-12-15T04:03:56.409Z,992.14
2017-12-15T04:04:56.392Z,992.18
2017-12-15T04:05:56.377Z,992.25
2017-12-15T04:06:56.361Z,992.22
2017-12-15T04:07:56.345Z,992.24
2017-12-15T04:08:56.332Z,992.25
2017-12-15T04:09:56.315Z,992.26
2017-12-15T04:10:56.298Z,992.24
2017-12-15T04:11:56.283Z,992.23
2017-12-15T04:12:56.266Z,992.24
2017-12-15T04:13:56.251Z,992.23
2017-12-15T04:14:56.235Z,992.26
2017-12-15T04:15:56.226Z,992.23
2017-12-15T04:16:56.202Z,992.26
2017-12-15T04:17:56.188Z,992.29
2017-12-15T04:18:56.172Z,992.29
2017-12-15T04:19:56.156Z,992.34
2017-12-15T04:20:56.141Z,992.30
2017-12-15T04:21:56.124Z,992.31
2017-12-15T04:22:56.112Z,992.32
2017-12-15T04:23:56.094Z,992.34
2017-12-15T04:24:56.090Z,992.39
2017-12-15T04:25:56.061Z,992.30
2017-12-15T04:26:56.046Z,992.37
2017-12-15T04:27:56.030Z,992.40
2017-12-15T04:28:56.014Z,992.37
2017-12-15T04:29:55.999Z,992.38
2017-12-15T04:30:55.983Z,992.36
2017-12-15T04:31:55.967Z,992.35
2017-12-15T04:32:55.951Z,992.39
2017-12-15T04:33:55.937Z,992.40
2017-12-15T04:34:55.919Z,992.39
2017-12-15T04:35:55.906Z,992.43
2017-12-15T04:36:55.888Z,992.42
2017-12-15T04:37:55.874Z,992.44
2017-12-15T04:38:55.859Z,992.46
2017-12-15T04:39:55.843Z,992.48
2017-12-15T04:40:55.826Z,992.48
2017-12-15T04:41:55.811Z,992.53
2017-12-15T04:42:55.796Z,992.54
2017-12-15T04:43:55.781Z,992.55
2017-12-15T04:44:55.763Z,992.54
2017-12-15T04:45:55.749Z,992.52
2017-12-15T04:46:55.733Z,992.53
2017-12-15T04:47:55.718Z,992.55
2017-12-15T04:48:55.701Z,992.50
2017-12-15T04:49:55.685Z,992.50
2017-12-15T04:50:55.670Z,992.53
2017-12-15T04:51:55.655Z,992.58
2017-12-15T04:52:55.640Z,992.52
2017-12-15T04:53:55.626Z,992.56
2017-12-15T04:54:55.608Z,992.53
2017-12-15T04:55:55.594Z,992.55
2017-12-15T04:56:55.577Z,992.57
2017-12-15T04:57:55.561Z,992.58
2017-12-15T04:58:55.546Z,992.61
2017-12-15T04:59:55.531Z,992.61
2017-12-15T05:00:55.515Z,992.60
2017-12-15T05:01:55.499Z,992.57
2017-12-15T05:02:55.485Z,992.59
2017-12-15T05:03:55.469Z,992.60
2017-12-15T05:04:55.452Z,992.61
2017-12-15T05:05:55.437Z,992.63
2017-12-15T05:06:55.421Z,992.60
2017-12-15T05:07:55.408Z,992.59
2017-12-15T05:08:55.391Z,992.60
2017-12-15T05:09:55.378Z,992.60
2017-12-15T05:10:55.360Z,992.62
2017-12-15T05:11:55.346Z,992.57
2017-12-15T05:12:55.328Z,992.56
2017-12-15T05:13:55.313Z,992.57
2017-12-15T05:14:55.299Z,992.60
2017-12-15T05:15:55.283Z,992.56
2017-12-15T05:16:55.266Z,992.60
2017-12-15T05:17:55.252Z,992.55
2017-12-15T05:18:55.236Z,992.55
2017-12-15T05:19:55.221Z,992.60
2017-12-15T05:20:55.206Z,992.61
2017-12-15T05:21:55.191Z,992.62
2017-12-15T05:22:55.175Z,992.62
2017-12-15T05:23:55.159Z,992.55
2017-12-15T05:24:55.143Z,992.59
2017-12-15T05:25:55.127Z,992.60
2017-12-15T05:26:55.112Z,992.57
2017-12-15T05:27:55.098Z,992.63
2017-12-15T05:28:55.081Z,992.65
2017-12-15T05:29:55.066Z,992.60
2017-12-15T05:30:55.051Z,992.58
2017-12-15T05:31:55.035Z,992.61
2017-12-15T05:32:55.019Z,992.66
2017-12-15T05:33:55.005Z,992.64
2017-12-15T05:34:54.989Z,992.58
2017-12-15T05:35:54.975Z,992.61
2017-12-15T05:36:54.958Z,992.61
2017-12-15T05:37:54.943Z,992.56
2017-12-15T05:38:54.928Z,992.54
2017-12-15T05:39:54.912Z,992.54
2017-12-15T05:40:54.899Z,992.60
2017-12-15T05:41:54.881Z,992.55
2017-12-15T05:42:54.866Z,992.59
2017-12-15T05:43:54.851Z,992.60
2017-12-15T05:44:54.836Z,992.60
2017-12-15T05:45:54.820Z,992.61
2017-12-15T05:46:54.806Z,992.59
2017-12-15T05:47:54.790Z,992.60
2017-12-15T05:48:54.772Z,992.66
2017-12-15T05:49:54.759Z,992.61
2017-12-15T05:50:54.744Z,992.66
2017-12-15T05:51:54.728Z,992.66
2017-12-15T05:52:54.711Z,992.67
2017-12-15T05:53:54.699Z,992.71
2017-12-15T05:54:54.682Z,992.71
2017-12-15T05:55:54.668Z,992.69
2017-12-15T05:56:54.650Z,992.74
2017-12-15T05:57:54.636Z,992.73
2017-12-15T05:58:54.620Z,992.70
2017-12-15T05:59:54.604Z,992.71
2017-12-15T06:00:54.589Z,992.74
2017-12-15T06:01:54.572Z,992.69
2017-12-15T06:02:54.557Z,992.72
2017-12-15T06:03:54.545Z,992.73
2017-12-15T06:04:54.529Z,992.74
2017-12-15T06:05:54.511Z,992.78
2017-12-15T06:06:54.497Z,992.80
2017-12-15T06:07:54.481Z,992.76
2017-12-15T06:08:54.464Z,992.79
2017-12-15T06:09:54.451Z,992.77
2017-12-15T06:10:54.435Z,992.79
2017-12-15T06:11:54.419Z,992.81
2017-12-15T06:12:54.404Z,992.81
2017-12-15T06:13:54.389Z,992.79
2017-12-15T06:14:54.374Z,992.78
2017-12-15T06:15:54.359Z,992.83
2017-12-15T06:16:54.342Z,992.80
2017-12-15T06:17:54.328Z,992.83
2017-12-15T06:18:54.313Z,992.82
2017-12-15T06:19:54.301Z,992.81
2017-12-15T06:20:54.282Z,992.83
2017-12-15T06:21:54.266Z,992.85
2017-12-15T06:22:54.251Z,992.84
2017-12-15T06:23:54.237Z,992.82
2017-12-15T06:24:54.221Z,992.81
2017-12-15T06:25:54.206Z,992.83
2017-12-15T06:26:54.189Z,992.86
2017-12-15T06:27:54.175Z,992.88
2017-12-15T06:28:54.158Z,992.92
2017-12-15T06:29:54.144Z,992.93
2017-12-15T06:30:54.128Z,992.91
2017-12-15T06:31:54.113Z,992.93
2017-12-15T06:32:54.101Z,992.96
2017-12-15T06:33:54.081Z,992.99
2017-12-15T06:34:54.071Z,993.00
2017-12-15T06:35:54.053Z,992.99
2017-12-15T06:36:54.036Z,993.03
2017-12-15T06:37:54.020Z,993.04
2017-12-15T06:38:54.005Z,993.05
2017-12-15T06:39:53.991Z,993.06
2017-12-15T06:40:53.974Z,993.06
2017-12-15T06:41:53.961Z,993.08
2017-12-15T06:42:53.945Z,993.06
2017-12-15T06:43:53.930Z,993.05
2017-12-15T06:44:53.914Z,993.07
2017-12-15T06:45:53.899Z,993.11
2017-12-15T06:46:53.883Z,993.16
2017-12-15T06:47:53.868Z,993.12
2017-12-15T06:48:53.854Z,993.15
2017-12-15T06:49:53.838Z,993.19
2017-12-15T06:50:53.823Z,993.17
2017-12-15T06:51:53.808Z,993.19
2017-12-15T06:52:53.792Z,993.17
2017-12-15T06:53:53.777Z,993.19
2017-12-15T06:54:53.761Z,993.22
2017-12-15T06:55:53.747Z,993.20
2017-12-15T06:56:53.730Z,993.25
2017-12-15T06:57:53.714Z,993.22
2017-12-15T06:58:53.701Z,993.26
2017-12-15T06:59:53.686Z,993.24
2017-12-15T07:00:53.670Z,993.28
2017-12-15T07:01:53.705Z,993.25
2017-12-15T07:02:53.640Z,993.27
2017-12-15T07:03:53.625Z,993.28
2017-12-15T07:04:53.607Z,993.27
2017-12-15T07:05:53.594Z,993.30
2017-12-15T07:06:53.579Z,993.30
2017-12-15T07:07:53.565Z,993.29
2017-12-15T07:08:53.548Z,993.30
2017-12-15T07:09:53.533Z,993.30
2017-12-15T07:10:53.518Z,993.30
2017-12-15T07:11:53.503Z,993.30
2017-12-15T07:12:53.487Z,993.30
2017-12-15T07:13:53.474Z,993.33
2017-12-15T07:14:53.458Z,993.33
2017-12-15T07:15:53.446Z,993.33
2017-12-15T07:16:53.427Z,993.31
2017-12-15T07:17:53.463Z,993.34
2017-12-15T07:18:53.398Z,993.34
2017-12-15T07:19:53.383Z,993.33
2017-12-15T07:20:53.367Z,993.31
2017-12-15T07:21:53.352Z,993.31
2017-12-15T07:22:53.339Z,993.27
2017-12-15T07:23:53.323Z,993.32
2017-12-15T07:24:53.311Z,993.31
2017-12-15T07:25:53.292Z,993.31
2017-12-15T07:26:53.277Z,993.33
2017-12-15T07:27:53.262Z,993.32
2017-12-15T07:28:53.246Z,993.28
2017-12-15T07:29:53.232Z,993.35
2017-12-15T07:30:53.218Z,993.33
2017-12-15T07:31:53.202Z,993.39
2017-12-15T07:32:53.187Z,993.38
2017-12-15T07:33:53.171Z,993.40
2017-12-15T07:34:53.157Z,993.41
2017-12-15T07:35:53.142Z,993.42
2017-12-15T07:36:53.128Z,993.41
2017-12-15T07:37:53.113Z,993.42
2017-12-15T07:38:53.096Z,993.44
2017-12-15T07:39:53.083Z,993.49
2017-12-15T07:40:53.067Z,993.48
2017-12-15T07:41:53.051Z,993.47
2017-12-15T07:42:53.037Z,993.54
2017-12-15T07:43:53.022Z,993.55
2017-12-15T07:44:53.006Z,993.51
2017-12-15T07:45:52.991Z,993.55
2017-12-15T07:46:52.976Z,993.54
2017-12-15T07:47:52.962Z,993.55
2017-12-15T07:48:52.946Z,993.55
2017-12-15T07:49:52.932Z,993.54
2017-12-15T07:50:52.933Z,993.55
2017-12-15T07:51:52.903Z,993.55
2017-12-15T07:52:52.886Z,993.56
2017-12-15T07:53:52.871Z,993.59
2017-12-15T07:54:52.858Z,993.62
2017-12-15T07:55:52.842Z,993.63
2017-12-15T07:56:52.827Z,993.65
2017-12-15T07:57:52.812Z,993.67
2017-12-15T07:58:52.797Z,993.69
2017-12-15T07:59:52.782Z,993.70
2017-12-15T08:00:52.768Z,993.70
2017-12-15T08:01:52.753Z,993.70
2017-12-15T08:02:52.738Z,993.71
2017-12-15T08:03:52.723Z,993.72
2017-12-15T08:04:52.708Z,993.71
2017-12-15T08:05:52.693Z,993.75
2017-12-15T08:06:52.678Z,993.70
2017-12-15T08:07:52.663Z,993.74
2017-12-15T08:08:52.651Z,993.75
2017-12-15T08:09:52.635Z,993.73
2017-12-15T08:10:52.618Z,993.72
2017-12-15T08:11:52.605Z,993.72
2017-12-15T08:12:52.593Z,993.75
2017-12-15T08:13:52.572Z,993.79
2017-12-15T08:14:52.559Z,993.79
2017-12-15T08:15:52.545Z,993.76
2017-12-15T08:16:52.529Z,993.83
2017-12-15T08:17:52.515Z,993.84
2017-12-15T08:18:52.502Z,993.81
2017-12-15T08:19:52.485Z,993.79
2017-12-15T08:20:52.469Z,993.84
2017-12-15T08:21:52.455Z,993.80
2017-12-15T08:22:52.439Z,993.85
2017-12-15T08:23:52.425Z,993.84
2017-12-15T08:24:52.409Z,993.86
2017-12-15T08:25:52.394Z,993.85
2017-12-15T08:26:52.379Z,993.94
2017-12-15T08:27:52.365Z,993.93
2017-12-15T08:28:52.349Z,993.90
2017-12-15T08:29:52.334Z,993.91
2017-12-15T08:30:52.320Z,993.93
2017-12-15T08:31:52.305Z,993.97
2017-12-15T08:32:52.288Z,993.96
2017-12-15T08:33:52.275Z,993.96
2017-12-15T08:34:52.259Z,993.97
2017-12-15T08:35:52.244Z,993.97
2017-12-15T08:36:52.228Z,993.98
2017-12-15T08:37:52.214Z,993.98
2017-12-15T08:38:52.200Z,994.01
2017-12-15T08:39:52.191Z,993.99
2017-12-15T08:40:52.169Z,994.02
2017-12-15T08:41:52.160Z,994.04
2017-12-15T08:42:52.140Z,994.04
2017-12-15T08:43:52.126Z,994.07
2017-12-15T08:44:52.110Z,994.03
2017-12-15T08:45:52.094Z,994.04
2017-12-15T08:46:52.079Z,994.05
2017-12-15T08:47:52.066Z,994.02
2017-12-15T08:48:52.067Z,994.02
2017-12-15T08:49:52.034Z,994.02
2017-12-15T08:50:52.020Z,994.02
2017-12-15T08:51:52.005Z,994.01
2017-12-15T08:52:51.991Z,994.09
2017-12-15T08:53:51.980Z,994.11
2017-12-15T08:54:51.960Z,994.11
2017-12-15T08:55:51.956Z,994.17
2017-12-15T08:56:51.930Z,994.18
2017-12-15T08:57:51.915Z,994.24
2017-12-15T08:58:51.901Z,994.25
2017-12-15T08:59:51.885Z,994.25
2017-12-15T09:00:51.870Z,994.29
2017-12-15T09:01:51.856Z,994.31
2017-12-15T09:02:51.840Z,994.36
2017-12-15T09:03:51.825Z,994.40
2017-12-15T09:04:51.811Z,994.41
2017-12-15T09:05:51.796Z,994.46
2017-12-15T09:06:51.781Z,994.49
2017-12-15T09:07:51.766Z,994.52
2017-12-15T09:08:51.754Z,994.48
2017-12-15T09:09:51.737Z,994.53
2017-12-15T09:10:51.721Z,994.57
2017-12-15T09:11:51.707Z,994.52
2017-12-15T09:12:51.694Z,994.54
2017-12-15T09:13:51.679Z,994.58
2017-12-15T09:14:51.663Z,994.58
2017-12-15T09:15:51.647Z,994.60
2017-12-15T09:16:51.632Z,994.58
2017-12-15T09:17:51.618Z,994.63
2017-12-15T09:18:51.607Z,994.62
2017-12-15T09:19:51.590Z,994.63
2017-12-15T09:20:51.574Z,994.65
2017-12-15T09:21:51.560Z,994.65
2017-12-15T09:22:51.545Z,994.66
2017-12-15T09:23:51.531Z,994.68
2017-12-15T09:24:51.517Z,994.69
2017-12-15T09:25:51.500Z,994.69
2017-12-15T09:26:51.486Z,994.73
2017-12-15T09:27:51.470Z,994.75
2017-12-15T09:28:51.456Z,994.71
2017-12-15T09:29:51.442Z,994.74
2017-12-15T09:30:51.426Z,994.76
2017-12-15T09:31:51.413Z,994.80
2017-12-15T09:32:51.397Z,994.81
2017-12-15T09:33:51.382Z,994.84
2017-12-15T09:34:51.368Z,994.86
2017-12-15T09:35:51.358Z,994.90
2017-12-15T09:36:51.338Z,994.93
2017-12-15T09:37:51.323Z,994.91
2017-12-15T09:38:51.309Z,994.96
2017-12-15T09:39:51.294Z,994.93
2017-12-15T09:40:51.279Z,994.96
2017-12-15T09:41:51.263Z,994.96
2017-12-15T09:42:51.250Z,995.01
2017-12-15T09:43:51.240Z,994.98
2017-12-15T09:44:51.219Z,995.03
2017-12-15T09:45:51.204Z,995.05
2017-12-15T09:46:51.190Z,995.02
2017-12-15T09:47:51.176Z,995.04
2017-12-15T09:48:51.161Z,995.10
2017-12-15T09:49:51.147Z,995.09
2017-12-15T09:50:51.132Z,995.11
2017-12-15T09:51:51.117Z,995.11
2017-12-15T09:52:51.103Z,995.14
2017-12-15T09:53:51.088Z,995.15
2017-12-15T09:54:51.073Z,995.15
2017-12-15T09:55:51.059Z,995.13
2017-12-15T09:56:51.044Z,995.16
2017-12-15T09:57:51.028Z,995.13
2017-12-15T09:58:51.013Z,995.16
2017-12-15T09:59:50.999Z,995.20
2017-12-15T10:00:50.984Z,995.21
2017-12-15T10:01:50.971Z,995.24
2017-12-15T10:02:50.957Z,995.26
2017-12-15T10:03:50.941Z,995.28
2017-12-15T10:04:50.924Z,995.29
2017-12-15T10:05:50.910Z,995.28
2017-12-15T10:06:50.895Z,995.33
2017-12-15T10:07:50.881Z,995.32
2017-12-15T10:08:50.865Z,995.34
2017-12-15T10:09:50.851Z,995.32
2017-12-15T10:10:50.837Z,995.37
2017-12-15T10:11:50.823Z,995.34
2017-12-15T10:12:50.807Z,995.35
2017-12-15T10:13:50.791Z,995.39
2017-12-15T10:14:50.777Z,995.41
2017-12-15T10:15:50.763Z,995.45
2017-12-15T10:16:50.748Z,995.46
2017-12-15T10:17:50.732Z,995.48
2017-12-15T10:18:50.718Z,995.47
2017-12-15T10:19:50.704Z,995.47
2017-12-15T10:20:50.687Z,995.44
2017-12-15T10:21:50.674Z,995.48
2017-12-15T10:22:50.660Z,995.48
2017-12-15T10:23:50.645Z,995.46
2017-12-15T10:24:50.629Z,995.44
2017-12-15T10:25:50.615Z,995.48
2017-12-15T10:26:50.601Z,995.43
2017-12-15T10:27:50.586Z,995.48
2017-12-15T10:28:50.570Z,995.47
2017-12-15T10:29:50.558Z,995.46
2017-12-15T10:30:50.542Z,995.48
2017-12-15T10:31:50.527Z,995.48
2017-12-15T10:32:50.511Z,995.51
2017-12-15T10:33:50.496Z,995.52
2017-12-15T10:34:50.482Z,995.49
2017-12-15T10:35:50.468Z,995.52
2017-12-15T10:36:50.453Z,995.52
2017-12-15T10:37:50.442Z,995.53
2017-12-15T10:38:50.424Z,995.54
2017-12-15T10:39:50.408Z,995.58
2017-12-15T10:40:50.393Z,995.56
2017-12-15T10:41:50.383Z,995.55
2017-12-15T10:42:50.364Z,995.57
2017-12-15T10:43:50.350Z,995.54
2017-12-15T10:44:50.334Z,995.54
2017-12-15T10:45:50.320Z,995.59
2017-12-15T10:46:50.305Z,995.57
2017-12-15T10:47:50.291Z,995.59
2017-12-15T10:48:50.276Z,995.56
2017-12-15T10:49:50.261Z,995.55
2017-12-15T10:50:50.246Z,995.55
2017-12-15T10:51:50.232Z,995.52
2017-12-15T10:52:50.297Z,995.52
2017-12-15T10:53:50.204Z,995.52
2017-12-15T10:54:50.188Z,995.54
2017-12-15T10:55:50.173Z,995.56
2017-12-15T10:56:50.157Z,995.50
2017-12-15T10:57:50.144Z,995.53
2017-12-15T10:58:50.129Z,995.51
2017-12-15T10:59:50.114Z,995.54
2017-12-15T11:00:50.099Z,995.52
2017-12-15T11:01:50.085Z,995.58
2017-12-15T11:02:50.069Z,995.54
2017-12-15T11:03:50.057Z,995.55
2017-12-15T11:04:50.039Z,995.57
2017-12-15T11:05:50.032Z,995.60
2017-12-15T11:06:50.012Z,995.56
2017-12-15T11:07:49.996Z,995.57
2017-12-15T11:08:49.980Z,995.57
2017-12-15T11:09:49.966Z,995.61
2017-12-15T11:10:49.951Z,995.59
2017-12-15T11:11:49.938Z,995.59
2017-12-15T11:12:49.934Z,995.63
2017-12-15T11:13:49.907Z,995.63
2017-12-15T11:14:49.892Z,995.64
2017-12-15T11:15:49.879Z,995.64
2017-12-15T11:16:49.863Z,995.65
2017-12-15T11:17:49.849Z,995.68
2017-12-15T11:18:49.834Z,995.66
2017-12-15T11:19:49.820Z,995.68
2017-12-15T11:20:49.810Z,995.68
2017-12-15T11:21:49.789Z,995.66
2017-12-15T11:22:49.774Z,995.73
2017-12-15T11:23:49.760Z,995.73
2017-12-15T11:24:49.745Z,995.74
2017-12-15T11:25:49.730Z,995.73
2017-12-15T11:26:49.720Z,995.76
2017-12-15T11:27:49.701Z,995.81
2017-12-15T11:28:49.687Z,995.78
2017-12-15T11:29:49.671Z,995.78
2017-12-15T11:30:49.656Z,995.76
2017-12-15T11:31:49.643Z,995.76
2017-12-15T11:32:49.627Z,995.77
2017-12-15T11:33:49.613Z,995.79
2017-12-15T11:34:49.600Z,995.77
2017-12-15T11:35:49.584Z,995.78
2017-12-15T11:36:49.569Z,995.79
2017-12-15T11:37:49.555Z,995.77
2017-12-15T11:38:49.539Z,995.83
2017-12-15T11:39:49.525Z,995.83
2017-12-15T11:40:49.510Z,995.81
2017-12-15T11:41:49.497Z,995.87
2017-12-15T11:42:49.480Z,995.86
2017-12-15T11:43:49.466Z,995.84
2017-12-15T11:44:49.451Z,995.83
2017-12-15T11:45:49.436Z,995.85
2017-12-15T11:46:49.422Z,995.84
2017-12-15T11:47:49.406Z,995.85
2017-12-15T11:48:49.391Z,995.85
2017-12-15T11:49:49.377Z,995.81
2017-12-15T11:50:49.361Z,995.86
2017-12-15T11:51:49.347Z,995.82
2017-12-15T11:52:49.332Z,995.85
2017-12-15T11:53:49.318Z,995.83
2017-12-15T11:54:49.304Z,995.84
2017-12-15T11:55:49.289Z,995.81
2017-12-15T11:56:49.272Z,995.83
2017-12-15T11:57:49.257Z,995.86
2017-12-15T11:58:49.245Z,995.90
2017-12-15T11:59:49.230Z,995.90
2017-12-15T12:00:49.214Z,995.89
2017-12-15T12:01:49.200Z,995.91
2017-12-15T12:02:49.185Z,995.86
2017-12-15T12:03:49.176Z,995.87
2017-12-15T12:04:49.154Z,995.89
2017-12-15T12:05:49.141Z,995.89
2017-12-15T12:06:49.126Z,995.88
2017-12-15T12:07:49.115Z,995.90
2017-12-15T12:08:49.096Z,995.88
2017-12-15T12:09:49.080Z,995.94
2017-12-15T12:10:49.066Z,995.93
2017-12-15T12:11:49.052Z,995.94
2017-12-15T12:12:49.037Z,995.95
2017-12-15T12:13:49.022Z,995.97
2017-12-15T12:14:49.007Z,995.97
2017-12-15T12:15:48.994Z,996.00
2017-12-15T12:16:48.976Z,995.99
2017-12-15T12:17:48.965Z,995.99
2017-12-15T12:18:48.949Z,995.94
2017-12-15T12:19:48.933Z,996.00
2017-12-15T12:20:48.918Z,995.97
2017-12-15T12:21:48.904Z,995.97
2017-12-15T12:22:48.888Z,995.98
2017-12-15T12:23:48.875Z,995.99
2017-12-15T12:24:48.859Z,996.00
2017-12-15T12:25:48.844Z,995.97
2017-12-15T12:26:48.830Z,996.02
2017-12-15T12:27:48.817Z,995.99